createdAt,value
2022-11-20T00:01:12.444Z,-7.81
2022-11-20T00:03:40.088Z,-7.88
2022-11-20T00:06:10.903Z,-7.94
2022-11-20T00:08:38.626Z,-7.99
2022-11-20T00:11:12.792Z,-8.05
2022-11-20T00:13:42.910Z,-8.11
2022-11-20T00:16:12.262Z,-8.16
2022-11-20T00:18:39.240Z,-8.24
2022-11-20T00:21:22.314Z,-8.29
2022-11-20T00:23:50.256Z,-8.37
2022-11-20T00:26:19.438Z,-8.43
2022-11-20T00:28:52.000Z,-8.50
2022-11-20T00:31:19.677Z,-8.53
2022-11-20T00:33:47.134Z,-8.58
2022-11-20T00:36:22.734Z,-8.60
2022-11-20T00:38:57.286Z,-8.66
2022-11-20T00:41:25.927Z,-8.68
2022-11-20T00:43:54.596Z,-8.69
2022-11-20T00:46:27.749Z,-8.70
2022-11-20T00:48:54.637Z,-8.70
2022-11-20T00:51:24.075Z,-8.68
2022-11-20T00:53:51.246Z,-8.68
2022-11-20T00:56:19.988Z,-8.63
2022-11-20T00:58:48.897Z,-8.58
2022-11-20T01:01:27.791Z,-8.51
2022-11-20T01:03:59.143Z,-8.42
2022-11-20T01:06:35.474Z,-8.35
2022-11-20T01:09:08.109Z,-8.28
2022-11-20T01:11:38.076Z,-8.20
2022-11-20T01:14:08.433Z,-8.14
2022-11-20T01:16:41.956Z,-8.05
2022-11-20T01:19:17.305Z,-7.98
2022-11-20T01:21:46.890Z,-7.90
2022-11-20T01:24:16.571Z,-7.82
2022-11-20T01:26:45.471Z,-7.77
2022-11-20T01:29:25.739Z,-7.70
2022-11-20T01:31:53.692Z,-7.64
2022-11-20T01:34:23.209Z,-7.59
2022-11-20T01:36:51.108Z,-7.52
2022-11-20T01:39:24.040Z,-7.45
2022-11-20T01:42:10.754Z,-7.39
2022-11-20T01:44:52.886Z,-7.33
2022-11-20T01:47:38.326Z,-7.25
2022-11-20T01:50:23.857Z,-7.20
2022-11-20T01:52:58.987Z,-7.14
2022-11-20T01:55:37.460Z,-7.08
2022-11-20T01:58:05.911Z,-7.04
2022-11-20T02:00:33.285Z,-7.01
2022-11-20T02:03:08.120Z,-6.94
2022-11-20T02:05:42.939Z,-6.88
2022-11-20T02:08:10.019Z,-6.82
2022-11-20T02:10:36.910Z,-6.76
2022-11-20T02:13:23.477Z,-6.71
2022-11-20T02:15:50.786Z,-6.66
2022-11-20T02:18:21.046Z,-6.63
2022-11-20T02:20:51.581Z,-6.56
2022-11-20T02:23:29.621Z,-6.50
2022-11-20T02:25:58.519Z,-6.45
2022-11-20T02:28:25.779Z,-6.42
2022-11-20T02:30:52.736Z,-6.35
2022-11-20T02:33:19.744Z,-6.32
2022-11-20T02:35:48.282Z,-6.26
2022-11-20T02:38:16.188Z,-6.20
2022-11-20T02:40:43.581Z,-6.17
2022-11-20T02:43:10.780Z,-6.12
2022-11-20T02:45:37.834Z,-6.07
2022-11-20T02:48:05.035Z,-6.04
2022-11-20T02:50:32.209Z,-5.99
2022-11-20T02:52:59.278Z,-5.95
2022-11-20T02:55:26.359Z,-5.90
2022-11-20T02:57:53.648Z,-5.85
2022-11-20T03:00:20.632Z,-5.81
2022-11-20T03:02:47.679Z,-5.76
2022-11-20T03:05:14.616Z,-5.76
2022-11-20T03:07:41.631Z,-5.71
2022-11-20T03:10:09.151Z,-5.67
2022-11-20T03:12:36.193Z,-5.62
2022-11-20T03:15:03.316Z,-5.59
2022-11-20T03:17:30.814Z,-5.55
2022-11-20T03:19:57.800Z,-5.53
2022-11-20T03:22:24.733Z,-5.48
2022-11-20T03:24:52.281Z,-5.46
2022-11-20T03:27:19.534Z,-5.40
2022-11-20T03:29:46.735Z,-5.38
2022-11-20T03:32:13.711Z,-5.35
2022-11-20T03:34:40.839Z,-5.30
2022-11-20T03:37:07.934Z,-5.26
2022-11-20T03:39:34.922Z,-5.24
2022-11-20T03:42:01.981Z,-5.19
2022-11-20T03:44:28.936Z,-5.15
2022-11-20T03:46:55.913Z,-5.12
2022-11-20T03:49:23.231Z,-5.08
2022-11-20T03:51:50.535Z,-5.04
2022-11-20T03:54:17.763Z,-5.03
2022-11-20T03:56:44.870Z,-4.99
2022-11-20T03:59:12.224Z,-4.96
2022-11-20T04:01:39.605Z,-4.94
2022-11-20T04:04:06.835Z,-4.91
2022-11-20T04:06:38.831Z,-4.89
2022-11-20T04:09:06.897Z,-4.87
2022-11-20T04:11:35.834Z,-4.85
2022-11-20T04:14:05.563Z,-4.85
2022-11-20T04:16:35.684Z,-4.84
2022-11-20T04:19:04.902Z,-4.82
2022-11-20T04:21:32.080Z,-4.80
2022-11-20T04:23:59.304Z,-4.80
2022-11-20T04:26:28.291Z,-4.82
2022-11-20T04:28:56.244Z,-4.87
2022-11-20T04:31:29.378Z,-4.86
2022-11-20T04:33:56.512Z,-4.83
2022-11-20T04:36:27.728Z,-4.83
2022-11-20T04:39:15.541Z,-4.84
2022-11-20T04:41:42.769Z,-4.82
2022-11-20T04:44:09.763Z,-4.86
2022-11-20T04:46:42.721Z,-4.82
2022-11-20T04:49:10.526Z,-4.83
2022-11-20T04:51:37.552Z,-4.79
2022-11-20T04:54:04.766Z,-4.78
2022-11-20T04:56:31.787Z,-4.76
2022-11-20T04:59:02.175Z,-4.74
2022-11-20T05:01:30.076Z,-4.79
2022-11-20T05:03:56.969Z,-4.80
2022-11-20T05:06:24.213Z,-4.80
2022-11-20T05:08:51.100Z,-4.79
2022-11-20T05:11:20.975Z,-4.86
2022-11-20T05:13:48.668Z,-4.95
2022-11-20T05:16:19.171Z,-4.89
2022-11-20T05:18:47.244Z,-4.87
2022-11-20T05:21:15.314Z,-4.90
2022-11-20T05:23:43.320Z,-4.91
2022-11-20T05:26:17.809Z,-4.90
2022-11-20T05:28:44.969Z,-4.95
2022-11-20T05:31:26.607Z,-5.02
2022-11-20T05:33:54.433Z,-4.95
2022-11-20T05:36:21.485Z,-5.01
2022-11-20T05:38:50.891Z,-4.88
2022-11-20T05:41:20.735Z,-4.70
2022-11-20T05:43:49.359Z,-4.60
2022-11-20T05:46:22.313Z,-4.51
2022-11-20T05:48:52.088Z,-4.44
2022-11-20T05:51:20.321Z,-4.40
2022-11-20T05:53:48.704Z,-4.33
2022-11-20T05:56:20.857Z,-4.23
2022-11-20T05:58:48.765Z,-4.16
2022-11-20T06:01:17.810Z,-4.07
2022-11-20T06:03:48.403Z,-3.95
2022-11-20T06:06:16.925Z,-3.88
2022-11-20T06:08:45.439Z,-3.76
2022-11-20T06:11:14.107Z,-3.68
2022-11-20T06:13:42.745Z,-3.57
2022-11-20T06:16:11.416Z,-3.43
2022-11-20T06:18:38.648Z,-3.35
2022-11-20T06:21:06.908Z,-3.23
2022-11-20T06:23:35.691Z,-3.16
2022-11-20T06:26:05.269Z,-3.06
2022-11-20T06:28:32.576Z,-2.99
2022-11-20T06:31:00.067Z,-2.88
2022-11-20T06:33:26.918Z,-2.82
2022-11-20T06:36:00.290Z,-2.72
2022-11-20T06:38:29.549Z,-2.61
2022-11-20T06:40:56.997Z,-2.52
2022-11-20T06:43:26.736Z,-2.40
2022-11-20T06:45:55.125Z,-2.32
2022-11-20T06:48:22.550Z,-2.21
2022-11-20T06:50:49.432Z,-2.11
2022-11-20T06:53:16.962Z,-2.05
2022-11-20T06:55:47.911Z,-1.90
2022-11-20T06:58:16.603Z,-1.80
2022-11-20T07:00:44.369Z,-1.69
2022-11-20T07:03:13.009Z,-1.57
2022-11-20T07:05:40.227Z,-1.49
2022-11-20T07:08:07.564Z,-1.40
2022-11-20T07:10:35.199Z,-1.29
2022-11-20T07:13:02.338Z,-1.19
2022-11-20T07:15:29.655Z,-1.08
2022-11-20T07:17:56.818Z,-0.99
2022-11-20T07:20:23.736Z,-0.95
2022-11-20T07:22:55.976Z,-0.82
2022-11-20T07:25:24.398Z,-0.75
2022-11-20T07:27:51.555Z,-0.69
2022-11-20T07:30:19.284Z,-0.71
2022-11-20T07:32:52.835Z,-0.62
2022-11-20T07:35:20.576Z,-0.58
2022-11-20T07:37:48.522Z,-0.55
2022-11-20T07:40:16.371Z,-0.53
2022-11-20T07:42:53.987Z,-0.47
2022-11-20T07:45:22.503Z,-0.39
2022-11-20T07:47:49.613Z,-0.35
2022-11-20T07:50:17.270Z,-0.29
2022-11-20T07:52:44.263Z,-0.19
2022-11-20T07:55:11.884Z,-0.11
2022-11-20T07:57:39.091Z,-0.04
2022-11-20T08:00:10.251Z,0.00
2022-11-20T08:02:41.309Z,0.08
2022-11-20T08:05:09.644Z,0.11
2022-11-20T08:07:41.416Z,0.15
2022-11-20T08:10:10.362Z,0.25
2022-11-20T08:12:55.809Z,0.34
2022-11-20T08:15:22.847Z,0.40
2022-11-20T08:18:15.445Z,0.53
2022-11-20T08:20:36.845Z,0.67
2022-11-20T08:23:06.811Z,0.80
2022-11-20T08:25:38.275Z,0.81
2022-11-20T08:28:18.725Z,0.87
2022-11-20T08:30:48.056Z,0.89
2022-11-20T08:33:15.236Z,0.93
2022-11-20T08:35:42.823Z,0.97
2022-11-20T08:38:10.536Z,1.00
2022-11-20T08:40:37.741Z,0.92
2022-11-20T08:43:05.400Z,0.96
2022-11-20T08:45:34.900Z,0.99
2022-11-20T08:48:04.101Z,0.97
2022-11-20T08:50:34.731Z,1.01
2022-11-20T08:53:05.790Z,1.07
2022-11-20T08:55:32.884Z,1.11
2022-11-20T08:58:04.050Z,1.11
2022-11-20T09:00:30.965Z,1.22
2022-11-20T09:02:59.682Z,1.24
2022-11-20T09:05:26.759Z,1.33
2022-11-20T09:07:57.173Z,1.36
2022-11-20T09:10:25.018Z,1.40
2022-11-20T09:12:53.389Z,1.38
2022-11-20T09:15:21.016Z,1.36
2022-11-20T09:18:06.042Z,1.49
2022-11-20T09:20:33.139Z,1.48
2022-11-20T09:23:00.127Z,1.48
2022-11-20T09:25:27.217Z,1.61
2022-11-20T09:28:00.921Z,1.70
2022-11-20T09:30:28.782Z,1.68
2022-11-20T09:32:56.677Z,1.77
2022-11-20T09:35:23.834Z,1.81
2022-11-20T09:37:51.130Z,1.90
2022-11-20T09:40:22.779Z,1.92
2022-11-20T09:43:20.301Z,1.93
2022-11-20T09:46:13.578Z,2.04
2022-11-20T09:48:55.028Z,2.06
2022-11-20T09:51:46.788Z,2.08
2022-11-20T09:54:39.343Z,2.05
2022-11-20T09:57:17.191Z,2.04
2022-11-20T09:59:45.574Z,2.09
2022-11-20T10:02:27.622Z,2.17
2022-11-20T10:05:19.309Z,2.26
2022-11-20T10:08:10.776Z,2.32
2022-11-20T10:10:53.600Z,2.40
2022-11-20T10:13:35.147Z,2.44
2022-11-20T10:16:02.032Z,2.52
2022-11-20T10:18:29.471Z,2.57
2022-11-20T10:21:25.812Z,2.51
2022-11-20T10:24:11.864Z,2.50
2022-11-20T10:26:59.317Z,2.52
2022-11-20T10:29:38.482Z,2.52
2022-11-20T10:32:36.981Z,2.46
2022-11-20T10:35:27.038Z,2.44
2022-11-20T10:38:01.056Z,2.35
2022-11-20T10:40:39.965Z,2.24
2022-11-20T10:43:16.186Z,2.26
2022-11-20T10:45:56.294Z,2.26
2022-11-20T10:48:26.371Z,2.16
2022-11-20T10:51:34.920Z,2.09
2022-11-20T10:54:13.125Z,2.19
2022-11-20T10:56:42.287Z,2.21
2022-11-20T10:59:39.586Z,2.26
2022-11-20T11:02:22.519Z,2.23
2022-11-20T11:04:59.706Z,2.27
2022-11-20T11:07:38.022Z,2.22
2022-11-20T11:10:17.613Z,2.19
2022-11-20T11:12:51.457Z,2.05
2022-11-20T11:15:39.470Z,2.07
2022-11-20T11:18:10.467Z,2.05
2022-11-20T11:20:37.504Z,1.84
2022-11-20T11:23:05.683Z,1.94
2022-11-20T11:25:35.159Z,1.80
2022-11-20T11:28:22.863Z,1.78
2022-11-20T11:30:50.505Z,1.78
2022-11-20T11:33:21.713Z,1.77
2022-11-20T11:35:53.771Z,1.70
2022-11-20T11:38:30.928Z,1.67
2022-11-20T11:40:58.675Z,1.66
2022-11-20T11:43:47.482Z,1.66
2022-11-20T11:46:29.340Z,1.65
2022-11-20T11:49:18.933Z,1.60
2022-11-20T11:52:10.627Z,1.33
2022-11-20T11:54:47.103Z,1.44
2022-11-20T11:57:50.833Z,1.25
2022-11-20T12:00:21.269Z,1.20
2022-11-20T12:02:51.124Z,1.31
2022-11-20T12:05:23.023Z,1.31
2022-11-20T12:08:01.556Z,1.40
2022-11-20T12:10:46.371Z,1.45
2022-11-20T12:13:31.776Z,1.48
2022-11-20T12:15:59.732Z,1.55
2022-11-20T12:18:26.839Z,1.45
2022-11-20T12:21:05.899Z,1.55
2022-11-20T12:23:59.809Z,1.48
2022-11-20T12:26:32.558Z,1.20
2022-11-20T12:29:18.047Z,1.03
2022-11-20T12:32:11.146Z,1.11
2022-11-20T12:34:46.544Z,0.99
2022-11-20T12:37:25.123Z,0.93
2022-11-20T12:39:57.534Z,1.00
2022-11-20T12:43:20.775Z,1.05
2022-11-20T12:46:09.297Z,1.04
2022-11-20T12:48:46.596Z,0.69
2022-11-20T12:51:33.443Z,0.68
2022-11-20T12:54:15.425Z,0.35
2022-11-20T12:57:15.404Z,0.58
2022-11-20T13:00:07.132Z,0.59
2022-11-20T13:03:34.096Z,0.49
2022-11-20T13:06:12.863Z,0.54
2022-11-20T13:08:41.969Z,0.60
2022-11-20T13:11:33.687Z,0.61
2022-11-20T13:14:12.392Z,0.65
2022-11-20T13:16:51.615Z,0.56
2022-11-20T13:19:19.384Z,0.67
2022-11-20T13:21:50.511Z,0.59
2022-11-20T13:24:20.628Z,0.54
2022-11-20T13:26:48.398Z,0.52
2022-11-20T13:29:20.292Z,0.60
2022-11-20T13:31:49.296Z,0.52
2022-11-20T13:34:27.131Z,0.43
2022-11-20T13:36:56.938Z,0.43
2022-11-20T13:39:37.039Z,0.43
2022-11-20T13:42:26.334Z,0.30
2022-11-20T13:44:56.391Z,0.38
2022-11-20T13:47:29.217Z,0.38
2022-11-20T13:49:59.840Z,0.36
2022-11-20T13:52:26.720Z,0.44
2022-11-20T13:54:53.675Z,0.42
2022-11-20T13:57:58.071Z,0.39
2022-11-20T14:00:26.226Z,0.38
2022-11-20T14:02:59.044Z,0.38
2022-11-20T14:05:25.977Z,0.29
2022-11-20T14:27:24.873Z,0.49
2022-11-20T14:29:52.169Z,0.50
2022-11-20T14:32:23.297Z,0.31
2022-11-20T14:34:52.111Z,0.33
2022-11-20T14:37:25.739Z,0.24
2022-11-20T14:39:57.381Z,0.28
2022-11-20T14:42:27.261Z,0.24
2022-11-20T14:45:00.336Z,0.20
2022-11-20T14:47:30.904Z,0.23
2022-11-20T14:49:59.648Z,0.00
2022-11-20T14:52:28.656Z,-0.05
2022-11-20T14:55:02.516Z,-0.06
2022-11-20T14:57:34.838Z,-0.19
2022-11-20T15:00:13.768Z,-0.42
2022-11-20T15:02:43.796Z,-0.52
2022-11-20T15:05:11.001Z,-0.48
2022-11-20T15:07:46.846Z,-0.47
2022-11-20T15:10:20.531Z,-0.58
2022-11-20T15:12:51.060Z,-0.45
2022-11-20T15:15:24.435Z,-0.47
2022-11-20T15:17:51.577Z,-0.49
2022-11-20T15:20:18.985Z,-0.32
2022-11-20T15:22:46.039Z,-0.45
2022-11-20T15:25:14.684Z,-0.35
2022-11-20T15:27:42.645Z,-0.33
2022-11-20T15:30:19.436Z,-0.27
2022-11-20T15:32:47.434Z,-0.24
2022-11-20T15:35:16.176Z,-0.15
2022-11-20T15:37:43.979Z,-0.20
2022-11-20T15:40:11.321Z,-0.09
2022-11-20T15:42:38.315Z,-0.07
2022-11-20T15:45:05.662Z,-0.01
2022-11-20T15:47:36.384Z,-0.03
2022-11-20T15:50:03.851Z,-0.06
2022-11-20T15:52:40.384Z,-0.05
2022-11-20T15:55:12.074Z,0.02
2022-11-20T15:57:39.005Z,0.06
2022-11-20T16:00:06.721Z,-0.02
2022-11-20T16:02:37.676Z,-0.02
2022-11-20T16:05:05.592Z,-0.01
2022-11-20T16:07:32.512Z,-0.06
2022-11-20T16:09:59.559Z,-0.06
2022-11-20T16:12:45.340Z,-0.10
2022-11-20T16:15:30.682Z,-0.33
2022-11-20T16:17:57.554Z,-0.20
2022-11-20T16:20:24.447Z,-0.23
2022-11-20T16:22:51.328Z,-0.42
2022-11-20T16:25:18.205Z,-0.29
2022-11-20T16:27:45.099Z,-0.22
2022-11-20T16:30:14.211Z,-0.22
2022-11-20T16:32:44.515Z,-0.14
2022-11-20T16:35:11.479Z,-0.18
2022-11-20T16:37:40.510Z,-0.10
2022-11-20T16:40:07.883Z,-0.17
2022-11-20T16:42:36.970Z,-0.20
2022-11-20T16:45:05.435Z,-0.10
2022-11-20T16:47:36.955Z,-0.22
2022-11-20T16:50:05.504Z,-0.16
2022-11-20T16:52:32.694Z,-0.09
2022-11-20T16:54:59.659Z,-0.13
2022-11-20T16:57:29.787Z,-0.17
2022-11-20T17:00:01.920Z,-0.09
2022-11-20T17:02:29.174Z,-0.10
2022-11-20T17:04:56.083Z,-0.12
2022-11-20T17:07:23.669Z,-0.12
2022-11-20T17:09:50.754Z,-0.11
2022-11-20T17:12:17.806Z,-0.07
2022-11-20T17:14:44.670Z,-0.04
2022-11-20T17:17:12.017Z,-0.05
2022-11-20T17:19:38.909Z,-0.05
2022-11-20T17:22:05.932Z,-0.03
2022-11-20T17:24:33.148Z,0.04
2022-11-20T17:27:00.557Z,0.04
2022-11-20T17:29:27.488Z,0.04
2022-11-20T17:31:54.886Z,0.03
2022-11-20T17:34:22.307Z,0.09
2022-11-20T17:36:49.737Z,0.01
2022-11-20T17:39:17.587Z,0.02
2022-11-20T17:41:44.918Z,0.03
2022-11-20T17:44:13.268Z,0.08
2022-11-20T17:46:40.894Z,0.17
2022-11-20T17:49:07.850Z,0.06
2022-11-20T17:51:37.877Z,0.12
2022-11-20T17:54:07.735Z,0.17
2022-11-20T17:56:54.652Z,0.21
2022-11-20T17:59:22.129Z,0.23
2022-11-20T18:01:49.478Z,0.16
2022-11-20T18:04:16.971Z,0.09
2022-11-20T18:06:44.247Z,0.15
2022-11-20T18:09:12.307Z,0.18
2022-11-20T18:11:42.675Z,0.21
2022-11-20T18:14:36.407Z,0.20
2022-11-20T18:17:09.657Z,0.22
2022-11-20T18:20:01.006Z,0.22
2022-11-20T18:22:32.249Z,0.16
2022-11-20T18:24:59.077Z,0.24
2022-11-20T18:27:26.095Z,0.25
2022-11-20T18:29:53.157Z,0.24
2022-11-20T18:32:21.672Z,0.18
2022-11-20T18:34:48.846Z,0.20
2022-11-20T18:37:16.709Z,0.22
2022-11-20T18:39:44.034Z,0.21
2022-11-20T18:42:32.350Z,0.27
2022-11-20T18:45:00.575Z,0.23
2022-11-20T18:47:32.149Z,0.32
2022-11-20T18:50:01.273Z,0.31
2022-11-20T18:52:34.879Z,0.25
2022-11-20T18:55:03.681Z,0.30
2022-11-20T18:57:31.408Z,0.29
2022-11-20T19:00:03.504Z,0.29
2022-11-20T19:02:34.460Z,0.36
2022-11-20T19:05:06.042Z,0.41
2022-11-20T19:07:33.003Z,0.38
2022-11-20T19:10:03.717Z,0.42
2022-11-20T19:12:31.444Z,0.36
2022-11-20T19:14:58.494Z,0.31
2022-11-20T19:17:25.533Z,0.36
2022-11-20T19:19:55.079Z,0.39
2022-11-20T19:22:22.411Z,0.43
2022-11-20T19:24:49.738Z,0.35
2022-11-20T19:27:17.053Z,0.38
2022-11-20T19:29:44.215Z,0.40
2022-11-20T19:32:11.466Z,0.41
2022-11-20T19:34:38.351Z,0.45
2022-11-20T19:37:05.362Z,0.41
2022-11-20T19:39:32.297Z,0.47
2022-11-20T19:41:59.261Z,0.48
2022-11-20T19:44:26.221Z,0.44
2022-11-20T19:46:53.005Z,0.46
2022-11-20T19:49:19.904Z,0.47
2022-11-20T19:51:49.460Z,0.49
2022-11-20T19:54:17.520Z,0.46
2022-11-20T19:56:45.581Z,0.44
2022-11-20T19:59:13.140Z,0.36
2022-11-20T20:01:40.282Z,0.37
2022-11-20T20:04:07.473Z,0.45
2022-11-20T20:06:36.155Z,0.35
2022-11-20T20:09:13.401Z,0.46
2022-11-20T20:11:40.814Z,0.48
2022-11-20T20:14:13.667Z,0.47
2022-11-20T20:16:41.187Z,0.49
2022-11-20T20:19:08.312Z,0.52
2022-11-20T20:21:36.526Z,0.53
2022-11-20T20:24:03.724Z,0.56
2022-11-20T20:26:31.852Z,0.59
2022-11-20T20:28:59.226Z,0.59
2022-11-20T20:31:27.944Z,0.59
2022-11-20T20:33:55.103Z,0.64
2022-11-20T20:36:23.660Z,0.64
2022-11-20T20:38:59.825Z,0.63
2022-11-20T20:41:27.249Z,0.66
2022-11-20T20:44:12.707Z,0.68
2022-11-20T20:46:40.586Z,0.67
2022-11-20T20:49:08.304Z,0.66
2022-11-20T20:51:35.751Z,0.69
2022-11-20T20:54:03.606Z,0.64
2022-11-20T20:56:30.547Z,0.58
2022-11-20T20:58:57.448Z,0.59
2022-11-20T21:01:28.620Z,0.68
2022-11-20T21:03:56.649Z,0.66
2022-11-20T21:06:24.315Z,0.63
2022-11-20T21:08:51.284Z,0.66
2022-11-20T21:11:20.596Z,0.66
2022-11-20T21:13:48.704Z,0.67
2022-11-20T21:16:17.412Z,0.66
2022-11-20T21:18:44.852Z,0.69
2022-11-20T21:21:32.561Z,0.68
2022-11-20T21:23:59.811Z,0.73
2022-11-20T21:26:27.156Z,0.76
2022-11-20T21:28:54.323Z,0.77
2022-11-20T21:31:23.624Z,0.81
2022-11-20T21:33:52.744Z,0.80
2022-11-20T21:36:24.613Z,0.82
2022-11-20T21:38:54.628Z,0.84
2022-11-20T21:41:22.515Z,0.84
2022-11-20T21:44:23.591Z,0.86
2022-11-20T21:46:41.111Z,0.83
2022-11-20T21:49:08.065Z,0.71
2022-11-20T21:51:35.097Z,0.79
2022-11-20T21:54:02.159Z,0.80
2022-11-20T21:56:28.994Z,0.76
2022-11-20T21:58:56.202Z,0.80
2022-11-20T22:01:28.618Z,0.84
2022-11-20T22:03:57.910Z,0.86
2022-11-20T22:06:27.056Z,0.81
2022-11-20T22:08:54.013Z,0.79
2022-11-20T22:11:22.297Z,0.73
2022-11-20T22:14:07.937Z,0.79
2022-11-20T22:16:36.524Z,0.79
2022-11-20T22:19:04.898Z,0.70
2022-11-20T22:21:32.967Z,0.73
2022-11-20T22:24:00.413Z,0.72
2022-11-20T22:26:29.626Z,0.76
2022-11-20T22:28:58.481Z,0.80
2022-11-20T22:31:30.243Z,0.84
2022-11-20T22:33:58.566Z,0.84
2022-11-20T22:36:28.543Z,0.85
2022-11-20T22:38:56.095Z,0.86
2022-11-20T22:41:27.763Z,0.87
2022-11-20T22:43:56.996Z,0.91
2022-11-20T22:46:25.386Z,0.92
2022-11-20T22:48:57.347Z,0.95
2022-11-20T22:51:34.677Z,0.94
2022-11-20T22:54:03.677Z,0.97
2022-11-20T22:56:31.065Z,0.95
2022-11-20T22:58:58.337Z,0.99
2022-11-20T23:01:34.055Z,1.00
2022-11-20T23:04:06.224Z,1.02
2022-11-20T23:06:36.483Z,1.01
2022-11-20T23:09:07.914Z,1.02
2022-11-20T23:11:35.895Z,1.05
2022-11-20T23:14:08.441Z,1.02
2022-11-20T23:16:35.665Z,1.06
2022-11-20T23:19:08.099Z,1.07
2022-11-20T23:21:37.256Z,1.08
2022-11-20T23:24:05.188Z,1.07
2022-11-20T23:26:35.561Z,1.06
2022-11-20T23:29:03.392Z,0.95
2022-11-20T23:31:32.167Z,0.72
2022-11-20T23:33:59.471Z,0.58
2022-11-20T23:36:26.742Z,0.61
2022-11-20T23:38:53.619Z,0.73
2022-11-20T23:41:20.429Z,0.80
2022-11-20T23:43:47.409Z,0.82
2022-11-20T23:46:16.709Z,0.86
2022-11-20T23:48:45.451Z,0.90
2022-11-20T23:51:13.394Z,0.91
2022-11-20T23:53:40.766Z,0.93
2022-11-20T23:56:07.853Z,0.91
